Time;durP1;ratioP1;P1;durP2;ratioP2;P2;SDS_P1;SDS_P2;PMS_P1;PMS_P2;Temp;Humidity;BMP_temperature;BMP_pressure;BME280_temperature;BME280_humidity;BME280_pressure;Samples;Min_cycle;Max_cycle;Signal;HPM_P1;HPM_P2
2022/01/16 00:04:24;;;;;;;7.80;4.72;;;;;;;26.27;28.73;97190.38;4925042;28;20106;-57
2022/01/16 00:06:49;;;;;;;7.20;3.92;;;;;;;26.28;28.50;97207.81;4931832;29;20027;-59
2022/01/16 00:09:15;;;;;;;5.45;3.80;;;;;;;26.28;28.84;97197.31;4930102;28;20039;-58
2022/01/16 00:11:41;;;;;;;7.32;3.88;;;;;;;26.29;28.73;97208.69;4921229;29;20111;-57
2022/01/16 00:14:06;;;;;;;5.25;3.47;;;;;;;26.29;28.60;97220.06;4920737;29;20031;-57
2022/01/16 00:16:32;;;;;;;6.15;4.00;;;;;;;26.25;28.60;97197.44;4909929;29;20254;-57
2022/01/16 00:18:58;;;;;;;6.18;4.10;;;;;;;26.28;28.56;97212.25;4920300;28;20034;-58
2022/01/16 00:21:24;;;;;;;6.60;4.18;;;;;;;26.29;28.58;97219.19;4922435;29;20138;-58
2022/01/16 00:23:50;;;;;;;6.38;4.15;;;;;;;26.28;28.64;97207.81;4922304;28;21287;-57
2022/01/16 00:26:15;;;;;;;6.60;3.80;;;;;;;26.29;28.65;97193.78;4920851;28;20031;-56
2022/01/16 00:28:40;;;;;;;5.20;3.95;;;;;;;26.29;28.65;97198.19;4925236;28;20039;-56
2022/01/16 00:31:06;;;;;;;7.18;3.97;;;;;;;26.28;28.65;97217.50;4919502;28;20031;-56
2022/01/16 00:33:31;;;;;;;5.50;3.70;;;;;;;26.28;28.67;97191.22;4919281;28;20063;-57
2022/01/16 00:35:57;;;;;;;8.35;3.92;;;;;;;26.27;28.78;97185.09;4910980;28;20337;-57
2022/01/16 00:38:22;;;;;;;5.72;3.42;;;;;;;26.28;28.69;97196.47;4922183;28;21222;-57
2022/01/16 00:40:48;;;;;;;6.35;3.90;;;;;;;26.27;28.73;97200.88;4921475;28;20079;-55
2022/01/16 00:43:14;;;;;;;7.60;3.70;;;;;;;26.28;28.63;97217.50;4922018;29;20156;-57
2022/01/16 00:45:39;;;;;;;7.55;3.65;;;;;;;26.28;28.58;97214.88;4929115;29;20038;-57
2022/01/16 00:48:05;;;;;;;7.20;3.72;;;;;;;26.28;28.69;97222.75;4921627;29;20043;-55
2022/01/16 00:50:31;;;;;;;3.97;3.20;;;;;;;26.27;28.64;97221.88;4922201;28;20261;-56
2022/01/16 00:52:56;;;;;;;5.55;3.53;;;;;;;26.28;28.65;97212.25;4917702;28;20541;-56
2022/01/16 00:55:22;;;;;;;6.13;3.83;;;;;;;26.28;28.71;97231.47;4917882;29;20038;-56
2022/01/16 00:57:47;;;;;;;6.93;3.50;;;;;;;26.28;28.67;97220.13;4911829;29;20037;-56
2022/01/16 01:00:13;;;;;;;4.97;3.35;;;;;;;26.27;28.64;97242.91;4924872;28;20024;-56
2022/01/16 01:02:38;;;;;;;5.40;3.60;;;;;;;26.26;28.75;97241.22;4923132;29;20474;-57
2022/01/16 01:05:04;;;;;;;6.85;3.58;;;;;;;26.27;28.64;97253.41;4913393;28;20028;-56
2022/01/16 01:07:29;;;;;;;5.40;3.33;;;;;;;26.26;28.71;97259.59;4925434;28;20031;-56
2022/01/16 01:09:55;;;;;;;4.70;3.72;;;;;;;26.25;28.55;97242.13;4924081;28;20598;-56
2022/01/16 01:12:25;;;;;;;4.90;3.50;;;;;;;26.27;28.58;97244.69;4921849;29;20078;-56
2022/01/16 01:15:10;;;;;;;4.55;3.22;;;;;;;26.26;28.67;97242.97;4927823;29;20056;-57
2022/01/16 01:17:43;;;;;;;4.85;3.40;;;;;;;26.25;28.66;97231.59;4923190;29;20309;-56
2022/01/16 01:20:10;;;;;;;6.05;3.42;;;;;;;26.24;28.68;97180.00;4923263;28;20118;-56
2022/01/16 01:22:36;;;;;;;5.38;3.40;;;;;;;26.25;28.56;97133.53;4929518;29;20557;-56
2022/01/16 01:25:01;;;;;;;6.63;3.47;;;;;;;26.25;28.48;97123.03;4929226;29;20030;-56
2022/01/16 01:27:31;;;;;;;6.60;3.45;;;;;;;26.24;28.63;97127.47;4924075;28;20036;-55
2022/01/16 01:30:02;;;;;;;7.22;3.53;;;;;;;26.25;28.54;97130.91;4922929;28;20039;-54
2022/01/16 01:32:27;;;;;;;4.68;3.35;;;;;;;26.23;28.53;97141.50;4930932;29;20505;-56
2022/01/16 01:34:53;;;;;;;4.53;3.30;;;;;;;26.24;28.60;97158.97;4929148;29;20043;-56
2022/01/16 01:37:18;;;;;;;5.28;3.42;;;;;;;26.24;28.57;97180.00;4924657;29;20326;-56
2022/01/16 01:39:44;;;;;;;5.78;3.30;;;;;;;26.22;28.63;97192.34;4921291;28;20248;-57
2022/01/16 01:42:11;;;;;;;6.88;2.92;;;;;;;26.22;28.75;97203.72;4931403;29;20027;-56
2022/01/16 01:52:49;;;;;;;4.40;3.03;;;;;;;26.21;28.52;97232.69;4922096;29;20066;-60
2022/01/16 01:55:15;;;;;;;5.25;3.42;;;;;;;26.21;28.67;97230.88;4929165;29;20032;-56
2022/01/16 01:57:40;;;;;;;4.32;3.00;;;;;;;26.20;28.68;97212.59;4911093;29;20504;-56
2022/01/16 02:00:06;;;;;;;4.63;3.08;;;;;;;26.20;28.69;97225.72;4929008;29;20821;-57
2022/01/16 02:02:41;;;;;;;3.33;2.70;;;;;;;26.20;28.52;97250.19;4927884;29;20042;-54
2022/01/16 02:05:07;;;;;;;4.40;2.95;;;;;;;26.17;28.73;97254.75;4928370;29;20031;-56
2022/01/16 02:07:33;;;;;;;3.45;2.90;;;;;;;26.20;28.63;97267.75;4927424;28;20066;-57
2022/01/16 02:09:58;;;;;;;6.32;2.80;;;;;;;26.19;28.62;97276.53;4934929;28;20034;-57
2022/01/16 02:12:24;;;;;;;8.60;3.30;;;;;;;26.19;28.64;97284.41;4928552;29;20391;-57
2022/01/16 02:15:01;;;;;;;5.15;3.00;;;;;;;26.19;28.45;97287.91;4926037;28;20529;-56
2022/01/16 02:36:45;;;;;;;5.72;3.40;;;;;;;26.12;28.44;97248.88;4919704;28;20501;-57
2022/01/16 02:39:13;;;;;;;5.05;2.92;;;;;;;26.10;28.63;97247.16;4925121;28;20047;-57
2022/01/16 02:41:39;;;;;;;5.97;2.90;;;;;;;26.09;28.56;97245.44;4926360;28;20327;-56
2022/01/16 02:44:17;;;;;;;7.25;3.00;;;;;;;26.09;28.63;97240.19;4921626;28;20035;-57
2022/01/16 02:46:44;;;;;;;5.15;3.00;;;;;;;26.08;28.71;97225.38;4923947;28;20110;-56
2022/01/16 02:49:26;;;;;;;5.45;3.00;;;;;;;26.10;28.76;97206.91;4920883;29;20085;-57
2022/01/16 02:51:54;;;;;;;3.97;2.80;;;;;;;26.09;28.72;97195.56;4926770;29;20453;-56
2022/01/16 02:54:19;;;;;;;3.35;2.75;;;;;;;26.09;28.75;97203.44;4928378;29;20084;-54
2022/01/16 02:56:45;;;;;;;4.63;3.00;;;;;;;26.10;28.76;97205.13;4909956;28;20118;-57
2022/01/16 02:59:11;;;;;;;7.10;2.83;;;;;;;26.09;28.63;97187.66;4920639;29;20031;-56
2022/01/16 03:01:37;;;;;;;3.60;3.00;;;;;;;26.09;28.63;97192.91;4926366;29;20034;-57
2022/01/16 03:04:03;;;;;;;3.97;2.65;;;;;;;26.09;28.64;97187.66;4928719;29;20031;-56
2022/01/16 03:06:28;;;;;;;5.50;2.83;;;;;;;26.08;28.67;97185.97;4927935;29;20529;-57
2022/01/16 03:08:53;;;;;;;3.95;2.42;;;;;;;26.09;28.59;97190.28;4929752;29;20336;-57
2022/01/16 03:11:34;;;;;;;4.03;2.78;;;;;;;26.09;28.80;97192.91;4928519;29;20538;-56
2022/01/16 03:14:03;;;;;;;3.85;2.60;;;;;;;26.09;28.63;97192.91;4930480;28;20027;-56
2022/01/16 03:16:29;;;;;;;4.28;2.80;;;;;;;26.09;28.62;97186.84;4926447;28;20735;-57
2022/01/16 03:21:54;;;;;;;3.50;2.50;;;;;;;26.08;28.68;97191.22;4929269;28;20035;-56
2022/01/16 03:24:40;;;;;;;3.22;2.53;;;;;;;26.09;28.75;97198.19;4927547;28;20045;-56
2022/01/16 03:27:07;;;;;;;5.00;2.40;;;;;;;26.09;28.65;97192.09;4930605;29;20052;-57
2022/01/16 03:29:33;;;;;;;3.60;2.30;;;;;;;26.07;28.62;97186.91;4935390;29;20082;-56
2022/01/16 03:31:59;;;;;;;2.92;2.38;;;;;;;26.09;28.83;97190.28;4930622;29;20023;-56
2022/01/16 03:34:25;;;;;;;3.60;2.45;;;;;;;26.05;28.60;97170.34;4915503;29;20085;-56
2022/01/16 03:36:50;;;;;;;5.60;2.47;;;;;;;26.07;28.90;97181.66;4918828;29;20031;-58
2022/01/16 03:39:16;;;;;;;3.25;2.40;;;;;;;26.08;28.63;97172.84;4927596;29;20694;-56
2022/01/16 03:41:41;;;;;;;4.50;2.70;;;;;;;26.07;28.66;97171.16;4924074;29;20036;-57
2022/01/16 03:44:07;;;;;;;3.10;2.58;;;;;;;26.08;28.65;97171.97;4909789;29;20039;-56
2022/01/16 03:46:34;;;;;;;3.60;2.60;;;;;;;26.07;28.76;97181.66;4929488;29;20031;-57
2022/01/16 03:49:16;;;;;;;2.40;1.98;;;;;;;26.07;28.60;97189.53;4926490;28;20054;-57
2022/01/16 03:51:42;;;;;;;3.97;2.28;;;;;;;26.07;28.81;97186.91;4929043;29;20696;-57
2022/01/16 03:54:08;;;;;;;5.32;2.38;;;;;;;26.06;28.67;97190.47;4927798;29;20040;-54
2022/01/16 03:56:34;;;;;;;4.13;2.50;;;;;;;26.06;28.78;97193.09;4925198;29;20028;-56
2022/01/16 03:58:59;;;;;;;3.05;2.22;;;;;;;26.06;28.73;97205.34;4926786;29;20725;-57
2022/01/16 04:01:25;;;;;;;4.18;2.33;;;;;;;26.05;28.76;97209.75;4929845;28;20023;-54
2022/01/16 04:03:51;;;;;;;3.00;2.53;;;;;;;26.06;28.64;97198.34;4925092;29;20220;-56
2022/01/16 04:06:19;;;;;;;2.90;2.22;;;;;;;26.05;28.66;97207.13;4934223;28;20034;-55
2022/01/16 04:08:45;;;;;;;4.78;2.20;;;;;;;26.05;28.86;97201.03;4926094;29;20047;-57
2022/01/16 04:11:11;;;;;;;3.50;2.25;;;;;;;26.05;28.81;97203.66;4925579;29;20031;-56
2022/01/16 04:13:40;;;;;;;3.47;2.13;;;;;;;26.04;28.75;97200.19;4927010;29;20078;-57
2022/01/16 04:16:05;;;;;;;4.05;2.20;;;;;;;26.04;28.81;97202.81;4926675;29;20432;-56
2022/01/16 04:18:31;;;;;;;2.50;2.20;;;;;;;26.04;28.70;97204.56;4927196;28;20151;-56
2022/01/16 04:20:57;;;;;;;2.35;2.15;;;;;;;26.04;28.67;97205.44;4927356;28;20035;-56
2022/01/16 04:23:22;;;;;;;2.88;2.03;;;;;;;26.03;28.62;97198.47;4925455;28;20783;-56
2022/01/16 04:25:48;;;;;;;2.30;2.10;;;;;;;26.03;28.65;97193.22;4927343;28;20035;-55
2022/01/16 04:28:13;;;;;;;4.38;2.15;;;;;;;26.03;28.65;97190.59;4927369;28;20035;-57
2022/01/16 04:30:39;;;;;;;3.28;2.33;;;;;;;26.02;28.68;97186.28;4928416;29;20074;-56
2022/01/16 04:33:04;;;;;;;3.83;2.33;;;;;;;26.03;28.93;97179.22;4926787;29;20046;-56
2022/01/16 04:35:29;;;;;;;2.20;1.92;;;;;;;26.03;28.75;97176.59;4929452;28;20085;-55
2022/01/16 04:37:55;;;;;;;4.88;2.08;;;;;;;26.03;28.69;97181.88;4929525;28;20030;-56
2022/01/16 04:40:22;;;;;;;3.03;2.38;;;;;;;26.02;28.83;97183.66;4927644;28;20487;-56
2022/01/16 04:45:31;;;;;;;3.15;2.20;;;;;;;26.02;28.62;97188.91;4927438;28;20094;-56
2022/01/16 04:47:57;;;;;;;3.50;2.10;;;;;;;26.03;28.72;97187.97;4921239;29;20039;-58
2022/01/16 04:50:25;;;;;;;2.55;1.83;;;;;;;26.02;28.66;97195.94;4921812;29;20536;-57
2022/01/16 04:52:50;;;;;;;2.35;2.00;;;;;;;26.02;28.82;97196.78;4924435;29;20114;-56
2022/01/16 04:55:16;;;;;;;2.67;2.00;;;;;;;26.01;28.88;97195.06;4926418;28;20047;-56
2022/01/16 04:57:41;;;;;;;4.40;2.05;;;;;;;26.00;28.80;97193.38;4926647;28;20039;-57
2022/01/16 05:00:10;;;;;;;2.70;2.00;;;;;;;26.01;28.68;97195.06;4925133;29;20055;-55
2022/01/16 05:02:35;;;;;;;3.03;2.22;;;;;;;26.00;28.62;97193.38;4925062;28;20502;-56
2022/01/16 05:05:01;;;;;;;2.40;2.00;;;;;;;26.00;28.71;97203.88;4916443;28;20118;-57
2022/01/16 05:07:26;;;;;;;2.50;2.03;;;;;;;25.99;28.81;97199.56;4925468;28;20094;-57
2022/01/16 05:09:51;;;;;;;2.67;2.20;;;;;;;25.98;28.74;97189.97;4922890;28;20042;-56
2022/01/16 05:12:26;;;;;;;2.72;1.90;;;;;;;25.97;28.75;97198.75;4921714;28;20083;-56
2022/01/16 05:17:35;;;;;;;1.98;1.70;;;;;;;25.98;28.84;97202.25;4927795;29;20034;-58
2022/01/16 05:20:01;;;;;;;2.25;1.98;;;;;;;25.96;28.82;97199.69;4916014;29;20031;-57
2022/01/16 05:22:26;;;;;;;2.83;2.20;;;;;;;25.96;28.83;97192.66;4926630;29;20035;-57
2022/01/16 05:24:52;;;;;;;1.70;1.52;;;;;;;25.96;28.73;97197.06;4926328;28;20035;-56
2022/01/16 05:27:17;;;;;;;2.13;1.88;;;;;;;25.96;28.73;97197.94;4926835;28;20075;-57
2022/01/16 05:29:42;;;;;;;2.30;2.10;;;;;;;25.95;28.83;97190.13;4928062;28;20285;-56
2022/01/16 05:32:08;;;;;;;2.95;1.98;;;;;;;25.95;28.79;97195.38;4924464;28;20339;-57
2022/01/16 05:34:33;;;;;;;2.45;1.92;;;;;;;25.95;28.71;97196.22;4928019;29;20509;-57
2022/01/16 05:36:59;;;;;;;2.50;1.90;;;;;;;25.94;28.87;97188.41;4917364;29;20456;-56
2022/01/16 05:39:24;;;;;;;2.42;2.00;;;;;;;25.93;28.85;97208.56;4919533;29;20038;-55
2022/01/16 05:41:50;;;;;;;2.90;2.15;;;;;;;25.94;28.77;97199.75;4925891;29;20105;-58
2022/01/16 05:44:15;;;;;;;2.35;1.80;;;;;;;25.93;28.90;97197.22;4922950;29;20058;-55
2022/01/16 05:46:41;;;;;;;2.28;2.08;;;;;;;25.94;28.73;97201.56;4924532;28;20510;-57
2022/01/16 05:49:06;;;;;;;2.63;1.80;;;;;;;25.93;28.89;97207.72;4928321;29;20468;-56
2022/01/16 05:51:31;;;;;;;2.10;1.90;;;;;;;25.93;28.79;97205.94;4930192;28;20031;-57
2022/01/16 05:53:57;;;;;;;2.25;1.88;;;;;;;25.91;28.85;97199.91;4931509;28;20034;-57
2022/01/16 05:56:23;;;;;;;1.92;1.73;;;;;;;25.92;28.77;97208.63;4930394;29;20027;-58
2022/01/16 05:58:48;;;;;;;2.10;1.90;;;;;;;25.92;28.88;97217.38;4928626;29;20085;-57
2022/01/16 06:01:14;;;;;;;2.10;1.90;;;;;;;25.92;28.75;97216.50;4917216;29;20026;-55
2022/01/16 06:03:39;;;;;;;2.97;2.10;;;;;;;25.92;28.80;97219.13;4933154;29;20604;-56
2022/01/16 06:06:05;;;;;;;5.47;1.90;;;;;;;25.91;28.77;97217.44;4930670;29;21367;-54
2022/01/16 06:08:30;;;;;;;2.25;1.90;;;;;;;25.90;28.83;97211.31;4930926;29;20196;-57
2022/01/16 06:10:55;;;;;;;2.03;1.83;;;;;;;25.91;28.79;97220.94;4933293;29;20027;-56
2022/01/16 06:13:21;;;;;;;1.90;1.70;;;;;;;25.90;28.85;97216.56;4927090;29;20086;-55
2022/01/16 06:15:46;;;;;;;2.88;2.00;;;;;;;25.91;28.74;97231.44;4928646;29;20066;-56
2022/01/16 06:18:13;;;;;;;2.25;2.05;;;;;;;25.90;28.75;97231.50;4928310;29;20040;-57
2022/01/16 06:20:38;;;;;;;2.17;1.88;;;;;;;25.91;28.77;97235.81;4929299;29;20221;-56
2022/01/16 06:23:03;;;;;;;3.33;2.10;;;;;;;25.90;28.86;97234.13;4927491;28;20027;-57
2022/01/16 06:25:29;;;;;;;1.90;1.80;;;;;;;25.90;28.91;97234.13;4927461;29;20398;-54
2022/01/16 06:27:54;;;;;;;6.95;4.50;;;;;;;25.89;28.60;97235.88;4924741;29;20159;-56
2022/01/16 06:30:20;;;;;;;2.78;2.30;;;;;;;25.88;28.73;97246.44;4927495;29;20498;-56
2022/01/16 06:32:45;;;;;;;3.13;2.30;;;;;;;25.86;28.80;97253.56;4905542;29;20027;-57
2022/01/16 06:35:11;;;;;;;2.67;2.30;;;;;;;25.87;28.74;97255.25;4925769;29;20040;-57
2022/01/16 06:37:36;;;;;;;3.70;2.08;;;;;;;25.87;28.81;97250.00;4923688;29;20046;-56
2022/01/16 06:40:02;;;;;;;2.13;1.80;;;;;;;25.87;28.68;97244.75;4921930;29;20308;-56
2022/01/16 06:42:28;;;;;;;3.08;2.00;;;;;;;25.86;28.74;97243.06;4921313;28;20115;-56
2022/01/16 06:44:53;;;;;;;2.28;2.03;;;;;;;25.87;28.87;97250.88;4908484;28;20031;-59
2022/01/16 06:47:19;;;;;;;3.45;1.98;;;;;;;25.87;28.81;97255.25;4907922;28;20446;-54
2022/01/16 06:49:44;;;;;;;7.72;3.75;;;;;;;25.87;28.82;97260.50;4905428;28;22135;-56
2022/01/16 06:52:10;;;;;;;8.15;3.55;;;;;;;25.85;28.61;97257.94;4904557;28;20791;-57
2022/01/16 06:54:35;;;;;;;3.15;2.38;;;;;;;25.83;28.76;97259.81;4905922;28;20040;-57
2022/01/16 06:57:01;;;;;;;3.33;2.63;;;;;;;25.83;28.81;97268.53;4906619;28;20028;-54
2022/01/16 06:59:26;;;;;;;4.32;2.47;;;;;;;25.82;28.69;97271.25;4909955;28;20042;-57
2022/01/16 07:01:52;;;;;;;2.72;2.35;;;;;;;25.83;28.74;97265.91;4910073;28;20024;-57
2022/01/16 07:04:17;;;;;;;2.53;2.10;;;;;;;25.83;28.88;97279.03;4918887;28;20478;-57
2022/01/16 07:06:42;;;;;;;2.78;2.45;;;;;;;25.83;28.89;97276.41;4920747;28;20063;-55
2022/01/16 07:09:08;;;;;;;3.67;2.28;;;;;;;25.85;28.70;97272.88;4921135;28;20240;-57
2022/01/16 07:11:33;;;;;;;2.92;2.38;;;;;;;25.85;28.68;97283.38;4919158;28;20046;-56
2022/01/16 07:13:58;;;;;;;3.00;2.40;;;;;;;25.85;28.80;97289.47;4922136;28;20486;-57
2022/01/16 07:16:24;;;;;;;2.42;2.08;;;;;;;25.86;28.84;97277.19;4919923;29;20027;-54
2022/01/16 07:18:49;;;;;;;2.38;1.88;;;;;;;25.86;28.75;97271.94;4920022;28;20032;-57
2022/01/16 07:21:15;;;;;;;4.88;2.63;;;;;;;25.86;28.81;97277.19;4922124;28;20039;-56
2022/01/16 07:23:41;;;;;;;3.13;2.25;;;;;;;25.86;28.66;97290.31;4918155;28;20317;-56
2022/01/16 07:26:06;;;;;;;2.60;2.35;;;;;;;25.86;28.80;97285.94;4916657;28;20112;-57
2022/01/16 07:28:32;;;;;;;3.65;2.58;;;;;;;25.86;28.57;97292.94;4918207;29;20035;-55
2022/01/16 07:30:57;;;;;;;7.43;3.03;;;;;;;25.81;28.58;97283.50;4920498;29;20028;-57
2022/01/16 07:33:23;;;;;;;8.50;3.17;;;;;;;25.85;28.63;97293.88;4919615;28;20498;-56
2022/01/16 07:35:48;;;;;;;12.18;3.00;;;;;;;25.84;28.62;97303.50;4918906;28;20027;-56
2022/01/16 07:38:14;;;;;;;7.80;2.70;;;;;;;25.86;28.69;97300.81;4917943;28;20560;-57
2022/01/16 07:40:39;;;;;;;5.63;2.80;;;;;;;25.85;28.76;97304.38;4919349;29;20217;-56
2022/01/16 07:43:04;;;;;;;4.88;3.15;;;;;;;25.85;28.67;97296.50;4918927;29;20038;-56
2022/01/16 07:45:30;;;;;;;5.40;2.60;;;;;;;25.86;28.83;97301.69;4896612;29;20070;-55
2022/01/16 07:47:55;;;;;;;5.15;2.40;;;;;;;25.87;28.73;97287.63;4919628;28;20494;-56
2022/01/16 07:50:21;;;;;;;9.60;2.67;;;;;;;25.88;28.72;97298.97;4919241;28;20076;-56
2022/01/16 07:52:48;;;;;;;5.07;2.63;;;;;;;25.88;28.80;97304.22;4917660;28;20572;-56
2022/01/16 07:55:13;;;;;;;6.88;3.00;;;;;;;25.90;28.67;97323.41;4919658;28;20039;-57
2022/01/16 07:57:39;;;;;;;5.78;3.53;;;;;;;25.90;28.74;97318.16;4915603;28;20155;-56
2022/01/16 08:00:06;;;;;;;13.18;8.80;;;;;;;25.86;26.83;97327.94;4917604;28;20153;-56
2022/01/16 08:02:31;;;;;;;11.30;8.05;;;;;;;25.80;26.22;97328.19;4918172;28;20118;-55
2022/01/16 08:04:57;;;;;;;9.82;8.57;;;;;;;25.73;25.36;97346.00;4917962;28;20054;-56
2022/01/16 08:07:22;;;;;;;11.82;8.75;;;;;;;25.65;24.81;97353.34;4916600;28;20600;-56
2022/01/16 08:09:47;;;;;;;10.98;8.93;;;;;;;25.56;25.03;97352.81;4914983;28;20047;-57
2022/01/16 08:12:14;;;;;;;11.50;8.50;;;;;;;25.47;24.52;97358.44;4918457;28;20030;-56
2022/01/16 08:14:39;;;;;;;10.23;8.18;;;;;;;25.40;24.10;97362.25;4920608;28;20035;-57
2022/01/16 08:17:05;;;;;;;12.77;8.90;;;;;;;25.31;24.16;97353.88;4922080;28;20065;-55
2022/01/16 08:19:30;;;;;;;11.13;8.90;;;;;;;25.26;24.17;97354.97;4919721;28;20408;-56
2022/01/16 08:21:56;;;;;;;12.57;8.27;;;;;;;25.19;24.00;97354.38;4914616;28;20038;-56
2022/01/16 08:24:22;;;;;;;10.95;8.65;;;;;;;25.14;23.93;97353.72;4919953;28;20035;-57
2022/01/16 08:26:47;;;;;;;12.73;8.20;;;;;;;25.10;23.98;97360.00;4917349;28;20494;-56
2022/01/16 08:29:13;;;;;;;9.98;8.20;;;;;;;25.07;23.93;97349.63;4920591;28;20050;-53
2022/01/16 08:31:38;;;;;;;11.40;8.00;;;;;;;25.03;23.83;97354.16;4917088;28;20028;-57
2022/01/16 08:34:03;;;;;;;10.90;8.63;;;;;;;24.99;23.56;97363.06;4929192;28;20030;-56
2022/01/16 08:36:29;;;;;;;11.75;8.15;;;;;;;24.95;23.48;97364.97;4919501;28;20599;-56
2022/01/16 08:38:54;;;;;;;13.75;8.80;;;;;;;24.91;23.19;97371.25;4918801;28;20585;-55
2022/01/16 08:41:21;;;;;;;10.98;8.60;;;;;;;24.88;23.29;97372.22;4915331;28;20026;-56
2022/01/16 08:43:46;;;;;;;10.20;8.73;;;;;;;24.84;23.69;97375.88;4924344;28;20038;-56
2022/01/16 08:46:13;;;;;;;10.35;8.70;;;;;;;24.83;23.43;97379.41;4926093;28;20028;-56
2022/01/16 08:48:38;;;;;;;11.07;9.40;;;;;;;24.80;23.24;97382.97;4920820;28;20134;-56
2022/01/16 08:51:04;;;;;;;11.18;8.85;;;;;;;24.79;23.12;97386.50;4918954;28;20028;-56
2022/01/16 08:53:29;;;;;;;11.98;8.60;;;;;;;24.78;23.37;97376.94;4916757;28;20443;-57
2022/01/16 08:55:55;;;;;;;11.23;8.55;;;;;;;24.78;23.37;97394.44;4916782;28;20027;-54
2022/01/16 08:58:20;;;;;;;8.82;6.50;;;;;;;24.80;23.96;97396.06;4918389;28;20047;-57
2022/01/16 09:00:47;;;;;;;10.77;6.32;;;;;;;24.85;24.56;97405.56;4919794;28;20038;-56
2022/01/16 09:03:13;;;;;;;7.95;6.00;;;;;;;24.90;25.02;97409.72;4916134;28;20086;-57
2022/01/16 09:05:38;;;;;;;7.40;5.60;;;;;;;24.93;25.34;97403.47;4922332;28;20039;-56
2022/01/16 09:08:04;;;;;;;8.85;5.57;;;;;;;25.01;25.59;97414.53;4917044;28;20280;-56
2022/01/16 09:10:29;;;;;;;8.52;5.43;;;;;;;25.07;25.65;97405.56;4917503;28;20039;-57
2022/01/16 09:12:55;;;;;;;7.93;5.28;;;;;;;25.12;25.85;97407.97;4927191;28;20237;-57
2022/01/16 09:15:20;;;;;;;8.00;5.70;;;;;;;25.15;26.01;97405.25;4923429;28;20363;-55
2022/01/16 09:17:46;;;;;;;9.27;5.25;;;;;;;25.20;26.20;97412.94;4940389;28;20039;-58
2022/01/16 09:20:14;;;;;;;7.85;5.03;;;;;;;25.24;26.21;97399.63;4924131;29;20039;-56
2022/01/16 09:22:42;;;;;;;15.10;6.03;;;;;;;25.28;26.28;97416.94;4928661;28;20035;-55
2022/01/16 09:25:08;;;;;;;14.98;5.63;;;;;;;25.28;26.33;97419.56;4924115;28;20145;-58
2022/01/16 09:27:33;;;;;;;21.90;14.48;;;;;;;25.20;22.60;97426.88;4923206;28;20493;-57
2022/01/16 09:29:59;;;;;;;18.58;15.35;;;;;;;24.99;20.43;97421.63;4921542;28;20038;-57
2022/01/16 09:32:25;;;;;;;17.88;15.25;;;;;;;24.74;19.14;97426.91;4919783;28;20124;-57
2022/01/16 09:34:51;;;;;;;19.80;14.85;;;;;;;24.44;19.71;97435.88;4909258;28;20732;-56
2022/01/16 09:37:16;;;;;;;17.83;14.50;;;;;;;24.23;20.42;97435.78;4921786;28;20046;-57
2022/01/16 09:39:42;;;;;;;16.23;12.23;;;;;;;24.12;21.38;97437.91;4920126;28;20035;-55
2022/01/16 09:42:07;;;;;;;16.20;11.07;;;;;;;24.07;21.93;97434.59;4934677;28;20027;-53
2022/01/16 09:44:37;;;;;;;15.90;10.60;;;;;;;24.07;22.53;97437.22;4919433;28;20061;-55
2022/01/16 09:47:03;;;;;;;14.88;10.52;;;;;;;24.07;22.99;97437.22;4921883;28;20027;-56
2022/01/16 09:49:28;;;;;;;13.80;9.60;;;;;;;24.14;23.46;97434.34;4921485;28;20498;-56
2022/01/16 09:51:54;;;;;;;13.55;9.80;;;;;;;24.20;23.61;97443.75;4911155;28;20035;-56
2022/01/16 09:54:20;;;;;;;12.63;8.80;;;;;;;24.27;23.79;97450.47;4920633;28;20090;-56
2022/01/16 09:56:46;;;;;;;11.13;8.02;;;;;;;24.36;23.92;97453.66;4921076;28;20035;-56
2022/01/16 09:59:11;;;;;;;15.98;8.52;;;;;;;24.41;24.30;97456.97;4918561;28;20699;-57
2022/01/16 10:01:37;;;;;;;14.93;8.15;;;;;;;24.49;24.46;97468.00;4921687;28;20030;-56
2022/01/16 10:04:03;;;;;;;12.23;9.15;;;;;;;24.54;24.18;97457.38;4918048;28;20063;-56
2022/01/16 10:06:28;;;;;;;15.63;8.88;;;;;;;24.60;24.27;97469.38;4917772;28;20082;-56
2022/01/16 10:08:56;;;;;;;20.45;9.30;;;;;;;24.66;24.39;97477.00;4922769;28;20395;-57
2022/01/16 10:11:40;;;;;;;30.30;10.48;;;;;;;24.70;24.78;97462.88;4915401;29;20082;-54
2022/01/16 10:14:15;;;;;;;20.25;8.82;;;;;;;24.76;24.98;97454.78;4927840;28;20146;-55
2022/01/16 10:16:41;;;;;;;26.17;8.98;;;;;;;24.80;24.87;97451.13;4927200;28;20751;-56
2022/01/16 10:19:25;;;;;;;18.50;9.00;;;;;;;24.86;25.00;97446.59;4923922;28;20067;-57
2022/01/16 10:21:50;;;;;;;16.58;8.88;;;;;;;24.89;25.15;97451.72;4927817;28;20037;-54
2022/01/16 10:24:18;;;;;;;19.88;9.15;;;;;;;24.92;25.23;97446.34;4930008;29;20678;-55
2022/01/16 10:26:43;;;;;;;14.68;8.13;;;;;;;24.96;25.20;97447.94;4913459;29;20039;-54
2022/01/16 10:29:13;;;;;;;17.15;8.13;;;;;;;25.01;25.30;97439.88;4926609;28;20027;-55
2022/01/16 10:31:39;;;;;;;14.95;8.07;;;;;;;25.05;25.47;97447.56;4927524;28;20038;-55
2022/01/16 10:34:05;;;;;;;16.35;7.50;;;;;;;25.08;25.57;97445.72;4929569;28;20526;-54
2022/01/16 10:36:32;;;;;;;16.77;7.47;;;;;;;25.13;25.58;97449.06;4908288;28;20310;-57
2022/01/16 10:39:10;;;;;;;14.82;7.30;;;;;;;25.16;25.75;97443.66;4925522;28;20042;-57
2022/01/16 10:41:36;;;;;;;16.70;7.47;;;;;;;25.18;25.82;97444.47;4928716;28;20031;-55
2022/01/16 10:44:02;;;;;;;12.25;7.13;;;;;;;25.23;25.75;97450.38;4926006;28;20031;-56
2022/01/16 10:46:27;;;;;;;13.32;6.82;;;;;;;25.26;25.97;97454.66;4927604;28;20481;-56
2022/01/16 10:49:12;;;;;;;12.75;6.47;;;;;;;25.25;25.79;97453.78;4927098;28;20038;-56
2022/01/16 10:51:38;;;;;;;13.18;6.65;;;;;;;25.30;26.01;97459.72;4928142;28;20488;-55
2022/01/16 10:54:29;;;;;;;8.38;6.18;;;;;;;25.34;26.14;97467.44;4927570;28;20039;-59
2022/01/16 10:56:54;;;;;;;14.18;6.50;;;;;;;25.36;26.16;97470.88;4928960;28;20286;-54
2022/01/16 10:59:21;;;;;;;11.02;5.88;;;;;;;25.39;26.15;97479.47;4930169;28;20282;-58
2022/01/16 11:02:05;;;;;;;9.18;5.88;;;;;;;25.41;26.21;97479.41;4928984;28;20031;-56
2022/01/16 11:04:30;;;;;;;9.43;5.72;;;;;;;25.43;26.41;97477.56;4923491;28;20414;-56
2022/01/16 11:07:03;;;;;;;9.18;5.43;;;;;;;25.45;26.49;97491.50;4928069;28;20043;-54
2022/01/16 11:09:29;;;;;;;8.82;5.90;;;;;;;25.47;26.44;97489.66;4943873;28;20039;-56
2022/01/16 11:11:59;;;;;;;9.98;6.32;;;;;;;25.49;26.45;97477.34;4929175;28;20039;-55
2022/01/16 11:14:28;;;;;;;9.38;5.57;;;;;;;25.51;26.57;97483.34;4929914;28;20165;-55
2022/01/16 11:16:57;;;;;;;10.48;5.95;;;;;;;25.53;26.66;97470.19;4925915;28;20249;-56
2022/01/16 11:19:24;;;;;;;7.88;5.30;;;;;;;25.53;26.76;97473.66;4930456;28;20035;-56
2022/01/16 11:22:03;;;;;;;6.88;4.53;;;;;;;25.55;26.76;97482.31;4925885;28;20030;-56
2022/01/16 11:24:46;;;;;;;7.20;5.22;;;;;;;25.56;26.66;97472.72;4928248;28;20035;-57
2022/01/16 11:27:15;;;;;;;9.00;5.40;;;;;;;25.60;26.76;97481.31;4928183;28;20027;-56
2022/01/16 11:29:40;;;;;;;9.07;4.90;;;;;;;25.61;26.96;97488.25;4928885;28;20542;-56
2022/01/16 11:32:06;;;;;;;7.82;5.20;;;;;;;25.62;26.81;97482.94;4927591;28;20042;-55
2022/01/16 11:34:31;;;;;;;10.05;4.68;;;;;;;25.64;27.01;97490.75;4913309;29;20040;-55
2022/01/16 11:36:57;;;;;;;7.57;4.85;;;;;;;25.65;26.99;97489.84;4926476;28;20462;-56
2022/01/16 11:39:23;;;;;;;7.90;4.90;;;;;;;25.66;26.92;97497.66;4901829;29;20324;-56
2022/01/16 11:41:53;;;;;;;8.45;4.80;;;;;;;25.68;26.91;97500.22;4927521;28;20034;-55
2022/01/16 11:44:28;;;;;;;8.05;4.90;;;;;;;25.70;27.12;97495.75;4927123;28;20027;-56
2022/01/16 11:46:55;;;;;;;8.40;5.03;;;;;;;25.72;26.98;97487.81;4925102;28;20031;-53
2022/01/16 11:49:41;;;;;;;7.13;4.80;;;;;;;25.73;27.06;97500.03;4928462;28;20029;-57
2022/01/16 11:52:07;;;;;;;7.40;4.85;;;;;;;25.75;27.20;97492.94;4930005;28;20082;-55
2022/01/16 11:54:37;;;;;;;6.03;4.72;;;;;;;25.77;27.23;97501.59;4927638;29;20031;-55
2022/01/16 11:57:16;;;;;;;7.13;4.53;;;;;;;25.77;27.26;97507.72;4927631;29;20039;-57
2022/01/16 11:59:42;;;;;;;9.52;4.82;;;;;;;25.77;27.13;97507.72;4929734;28;20070;-55
2022/01/16 12:02:07;;;;;;;6.45;4.65;;;;;;;25.79;27.18;97511.13;4929673;28;20468;-57
2022/01/16 12:04:32;;;;;;;8.20;4.53;;;;;;;25.81;27.25;97505.78;4928425;28;20358;-57
2022/01/16 12:07:13;;;;;;;8.40;4.60;;;;;;;25.82;27.28;97515.41;4927351;28;20034;-58
2022/01/16 12:12:10;;;;;;;6.00;4.43;;;;;;;25.85;27.26;97519.66;4924626;28;20092;-56